Time;durP1;ratioP1;P1;durP2;ratioP2;P2;SDS_P1;SDS_P2;PMS_P1;PMS_P2;Temp;Humidity;BMP_temperature;BMP_pressure;BME280_temperature;BME280_humidity;BME280_pressure;Samples;Min_cycle;Max_cycle;Signal;HPM_P1;HPM_P2
2022/01/03 00:02:24;;;;;;;11.20;2.90;;;10.90;99.90;;;;;;4971739;28;20038;-67
2022/01/03 00:04:50;;;;;;;19.37;2.90;;;11.00;99.90;;;;;;4965380;28;20388;-67
2022/01/03 00:07:16;;;;;;;22.97;3.07;;;10.90;99.90;;;;;;4972103;28;20034;-67
2022/01/03 00:09:42;;;;;;;18.93;3.47;;;10.90;99.90;;;;;;4971169;28;20022;-67
2022/01/03 00:12:08;;;;;;;24.70;3.60;;;10.80;99.90;;;;;;4971767;28;20035;-67
2022/01/03 00:14:35;;;;;;;17.60;3.40;;;11.00;99.90;;;;;;4970613;28;20109;-67
2022/01/03 00:17:01;;;;;;;17.47;3.50;;;;;;;;;;4971213;28;20332;-67
2022/01/03 00:19:27;;;;;;;29.47;4.83;;;;;;;;;;4971268;28;20037;-67
2022/01/03 00:21:56;;;;;;;20.27;3.50;;;11.00;99.90;;;;;;4971383;28;20149;-67
2022/01/03 00:24:27;;;;;;;27.77;4.70;;;11.20;99.90;;;;;;4971660;28;20070;-67
2022/01/03 00:27:03;;;;;;;25.70;4.60;;;11.00;99.90;;;;;;4971403;28;20503;-67
2022/01/03 00:29:41;;;;;;;32.70;5.03;;;10.90;99.90;;;;;;4970548;28;20158;-67
2022/01/03 00:32:08;;;;;;;20.88;4.03;;;10.80;99.90;;;;;;4970581;28;20031;-67
2022/01/03 00:34:36;;;;;;;21.45;3.85;;;10.90;99.90;;;;;;4971035;28;20088;-67
2022/01/03 00:37:02;;;;;;;23.83;3.80;;;10.80;99.90;;;;;;4971323;28;20472;-67
2022/01/03 00:39:31;;;;;;;25.93;4.17;;;11.00;99.90;;;;;;4971022;28;20038;-67
2022/01/03 00:41:58;;;;;;;22.90;4.50;;;;;;;;;;4970974;28;20032;-67
2022/01/03 00:44:25;;;;;;;28.60;5.43;;;10.70;99.90;;;;;;4970808;28;20109;-67
2022/01/03 00:46:52;;;;;;;28.88;3.67;;;10.80;99.90;;;;;;4970856;28;20084;-67
2022/01/03 00:49:18;;;;;;;27.90;5.57;;;10.90;99.90;;;;;;4971119;28;20034;-67
2022/01/03 00:51:44;;;;;;;20.30;4.30;;;;;;;;;;4970673;28;20041;-67
2022/01/03 00:54:10;;;;;;;25.60;4.23;;;10.70;99.90;;;;;;4971255;28;20388;-67
2022/01/03 00:56:44;;;;;;;19.10;3.30;;;10.50;99.90;;;;;;4969930;28;20485;-67
2022/01/03 00:59:23;;;;;;;29.52;5.03;;;11.00;99.90;;;;;;4970766;28;20067;-68
2022/01/03 01:01:51;;;;;;;20.88;5.60;;;10.80;99.90;;;;;;4970105;28;20142;-67
2022/01/03 01:04:18;;;;;;;27.00;4.60;;;10.80;99.90;;;;;;4971155;28;20058;-67
2022/01/03 01:06:49;;;;;;;26.90;4.73;;;10.80;99.90;;;;;;4970402;28;20030;-67
2022/01/03 01:09:15;;;;;;;23.47;4.57;;;;;;;;;;4970945;28;20369;-67
2022/01/03 01:11:43;;;;;;;24.27;5.50;;;10.70;99.90;;;;;;4969906;28;20432;-67
2022/01/03 01:14:09;;;;;;;19.30;4.13;;;11.00;99.90;;;;;;4970857;28;20027;-67
2022/01/03 01:16:35;;;;;;;20.90;3.73;;;10.80;99.90;;;;;;4970047;28;20030;-67
2022/01/03 01:19:03;;;;;;;22.67;3.90;;;10.70;99.90;;;;;;4970764;28;20332;-67
2022/01/03 01:21:29;;;;;;;28.60;4.43;;;;;;;;;;4970276;28;20037;-67
2022/01/03 01:23:56;;;;;;;19.00;3.87;;;10.60;99.90;;;;;;4970391;28;20039;-67
2022/01/03 01:29:11;;;;;;;29.87;5.23;;;10.80;99.90;;;;;;4929708;29;20497;-67
2022/01/03 01:31:47;;;;;;;28.38;4.97;;;10.60;99.90;;;;;;4928824;29;20135;-67
2022/01/03 01:34:19;;;;;;;23.83;3.13;;;10.50;99.90;;;;;;4929743;29;20099;-67
2022/01/03 01:36:46;;;;;;;24.33;4.73;;;10.60;99.90;;;;;;4928923;29;20035;-68
2022/01/03 01:39:12;;;;;;;24.07;3.97;;;;;;;;;;4929668;29;20063;-67
2022/01/03 01:41:43;;;;;;;20.17;3.50;;;10.60;99.90;;;;;;4928294;29;20036;-67
2022/01/03 01:44:09;;;;;;;19.23;3.77;;;10.50;99.90;;;;;;4928663;29;20457;-67
2022/01/03 01:46:44;;;;;;;23.37;4.10;;;10.70;99.90;;;;;;4928661;29;20043;-67
2022/01/03 01:49:17;;;;;;;18.63;3.83;;;10.70;99.90;;;;;;4929431;29;20075;-67
2022/01/03 01:51:45;;;;;;;23.87;3.63;;;10.80;99.90;;;;;;4928917;29;20432;-67
2022/01/03 01:54:15;;;;;;;24.73;4.43;;;10.70;99.90;;;;;;4929454;29;20044;-67
2022/01/03 01:57:01;;;;;;;17.33;3.87;;;10.80;99.90;;;;;;4928230;29;20038;-67
2022/01/03 02:00:07;;;;;;;20.20;3.43;;;10.70;99.90;;;;;;4928802;29;20394;-67
2022/01/03 02:02:58;;;;;;;22.77;3.83;;;10.80;99.90;;;;;;4928427;29;20552;-67
2022/01/03 02:05:40;;;;;;;22.83;3.70;;;10.70;99.90;;;;;;4930503;28;20042;-67
2022/01/03 02:08:22;;;;;;;26.40;5.23;;;10.70;99.90;;;;;;4969922;28;20114;-67
2022/01/03 02:11:00;;;;;;;35.23;4.50;;;10.70;99.90;;;;;;4968420;28;20038;-67
2022/01/03 02:13:26;;;;;;;32.20;5.60;;;;;;;;;;4969308;28;20109;-67
2022/01/03 02:16:00;;;;;;;27.10;4.10;;;10.70;99.90;;;;;;4968560;28;20105;-67
2022/01/03 02:18:26;;;;;;;;;;;11.50;99.90;;;;;;4969596;28;20515;-67
2022/01/03 02:20:52;;;;;;;26.97;4.53;;;10.80;99.90;;;;;;4969165;28;19913;-67
2022/01/03 02:23:18;;;;;;;24.50;4.27;;;10.80;99.90;;;;;;4969832;28;20340;-67
2022/01/03 02:25:44;;;;;;;30.13;5.07;;;;;;;;;;4968589;28;20540;-67
2022/01/03 02:28:10;;;;;;;29.23;5.07;;;10.60;99.90;;;;;;4969399;28;20108;-67
2022/01/03 02:30:36;;;;;;;20.73;4.00;;;;;;;;;;4967140;28;20477;-67
2022/01/03 02:33:03;;;;;;;31.17;5.07;;;10.60;99.90;;;;;;4969389;28;20038;-67
2022/01/03 02:35:30;;;;;;;22.20;4.13;;;;;;;;;;4969033;28;20023;-67
2022/01/03 02:37:55;;;;;;;32.37;5.23;;;10.80;99.90;;;;;;4969174;28;20097;-67
2022/01/03 02:40:22;;;;;;;28.30;4.47;;;10.60;99.90;;;;;;4968916;28;20047;-67
2022/01/03 02:42:49;;;;;;;20.60;3.90;;;10.60;99.90;;;;;;4968447;28;20027;-67
2022/01/03 02:45:20;;;;;;;24.97;3.87;;;10.50;99.90;;;;;;4969513;28;20110;-67
2022/01/03 02:47:49;;;;;;;24.83;3.97;;;10.60;99.90;;;;;;4968569;28;20069;-67
2022/01/03 02:50:16;;;;;;;30.83;3.87;;;10.60;99.90;;;;;;4969270;28;20268;-67
2022/01/03 02:52:42;;;;;;;26.57;5.83;;;10.50;99.90;;;;;;4968680;28;20094;-68
2022/01/03 02:55:09;;;;;;;26.03;4.30;;;10.40;99.90;;;;;;4969416;28;20035;-67
2022/01/03 02:57:40;;;;;;;21.13;4.03;;;10.50;99.90;;;;;;4972215;28;20431;-67
2022/01/03 03:00:10;;;;;;;22.67;4.27;;;10.50;99.90;;;;;;4972960;28;20118;-67
2022/01/03 03:02:36;;;;;;;22.93;5.00;;;;;;;;;;4972497;28;20457;-67
2022/01/03 03:05:05;;;;;;;24.17;5.43;;;10.90;99.90;;;;;;4971381;28;20795;-67
2022/01/03 03:07:33;;;;;;;30.13;4.63;;;10.40;99.90;;;;;;4971141;28;20702;-67
2022/01/03 03:10:00;;;;;;;19.90;3.63;;;10.60;99.90;;;;;;4972522;28;20027;-68
2022/01/03 03:12:27;;;;;;;28.47;3.60;;;10.50;99.90;;;;;;4972287;28;20324;-67
2022/01/03 03:14:52;;;;;;;19.97;4.40;;;10.40;99.90;;;;;;4970878;28;20031;-67
2022/01/03 03:17:19;;;;;;;23.33;4.33;;;10.40;99.90;;;;;;4971976;28;20085;-67
2022/01/03 03:19:50;;;;;;;25.97;4.47;;;10.40;99.90;;;;;;4971884;28;20039;-67
2022/01/03 03:22:16;;;;;;;23.60;4.77;;;;;;;;;;4971422;28;20034;-67
2022/01/03 03:24:42;;;;;;;36.53;5.87;;;10.60;99.90;;;;;;4971268;28;20090;-67
2022/01/03 03:27:12;;;;;;;23.00;3.73;;;10.90;99.90;;;;;;4972196;28;20089;-67
2022/01/03 03:29:45;;;;;;;20.47;3.10;;;10.60;99.90;;;;;;4971540;28;20043;-67
2022/01/03 03:32:11;;;;;;;25.63;5.65;;;10.50;99.90;;;;;;4972585;28;20077;-68
2022/01/03 03:34:36;;;;;;;28.40;3.73;;;10.50;99.90;;;;;;4971859;28;20413;-67
2022/01/03 03:37:02;;;;;;;20.57;3.60;;;10.50;99.90;;;;;;4971826;28;20102;-67
2022/01/03 03:39:28;;;;;;;19.13;4.17;;;10.50;99.90;;;;;;4971794;28;20094;-67
2022/01/03 03:41:53;;;;;;;31.70;5.20;;;10.60;99.90;;;;;;4971374;28;20030;-68
2022/01/03 03:44:19;;;;;;;23.03;4.00;;;;;;;;;;4972551;28;20125;-67
2022/01/03 03:46:45;;;;;;;28.60;4.50;;;;;;;;;;4971738;28;20488;-68
2022/01/03 03:49:10;;;;;;;25.27;4.73;;;10.50;99.90;;;;;;4972570;28;20027;-67
2022/01/03 03:51:38;;;;;;;21.83;4.07;;;;;;;;;;4971255;28;20369;-67
2022/01/03 03:54:04;;;;;;;24.10;4.90;;;10.50;99.90;;;;;;4972339;28;20030;-67
2022/01/03 03:56:30;;;;;;;24.10;4.83;;;;;;;;;;4971613;28;20380;-67
2022/01/03 03:58:56;;;;;;;20.27;4.17;;;;;;;;;;4972020;28;20042;-67
2022/01/03 04:01:22;;;;;;;24.40;3.53;;;10.50;99.90;;;;;;4972334;28;20022;-67
2022/01/03 04:03:47;;;;;;;25.30;4.23;;;10.50;99.90;;;;;;4971841;28;20030;-67
2022/01/03 04:06:13;;;;;;;23.03;4.37;;;;;;;;;;4971548;28;20031;-67
2022/01/03 04:08:39;;;;;;;24.63;5.20;;;10.50;99.90;;;;;;4970350;28;20057;-67
2022/01/03 04:11:04;;;;;;;21.80;4.67;;;10.40;99.90;;;;;;4986832;28;20055;-67
2022/01/03 04:13:30;;;;;;;24.37;4.40;;;;;;;;;;4971525;28;20104;-67
2022/01/03 04:15:56;;;;;;;32.47;5.60;;;10.30;99.90;;;;;;4971699;28;20033;-67
2022/01/03 04:18:21;;;;;;;32.67;4.30;;;10.50;99.90;;;;;;4971864;28;20346;-67
2022/01/03 04:20:47;;;;;;;27.63;6.13;;;10.30;99.90;;;;;;4970551;28;20125;-67
2022/01/03 04:23:13;;;;;;;20.37;4.40;;;10.80;99.90;;;;;;4971723;28;20046;-67
2022/01/03 04:25:39;;;;;;;20.83;4.57;;;;;;;;;;4971119;28;20034;-67
2022/01/03 04:28:04;;;;;;;34.03;5.40;;;10.60;99.90;;;;;;4971767;28;20093;-67
2022/01/03 04:30:30;;;;;;;35.17;6.63;;;10.60;99.90;;;;;;4971009;28;20452;-67
2022/01/03 04:32:55;;;;;;;26.67;4.97;;;10.60;99.90;;;;;;4986507;28;20033;-67
2022/01/03 04:35:21;;;;;;;32.17;6.87;;;10.50;99.90;;;;;;4971151;28;20354;-67
2022/01/03 04:37:47;;;;;;;34.53;6.53;;;;;;;;;;4970654;28;20026;-67
2022/01/03 04:40:13;;;;;;;26.27;6.20;;;10.20;99.90;;;;;;4971620;28;20118;-67
2022/01/03 04:42:39;;;;;;;28.03;5.93;;;;;;;;;;4970742;28;20031;-67
2022/01/03 04:45:05;;;;;;;30.50;5.73;;;10.30;99.90;;;;;;4971282;28;20035;-67
2022/01/03 04:47:31;;;;;;;37.67;6.43;;;;;;;;;;4970884;28;20043;-67
2022/01/03 04:49:56;;;;;;;25.80;5.37;;;10.60;99.90;;;;;;4970548;28;20484;-67
2022/01/03 04:52:22;;;;;;;28.97;7.03;;;10.50;99.90;;;;;;4971418;28;20034;-67
2022/01/03 04:54:47;;;;;;;28.63;5.40;;;10.50;99.90;;;;;;4970772;28;20098;-67
2022/01/03 04:57:13;;;;;;;23.53;4.93;;;10.50;99.90;;;;;;4970874;28;20143;-67
2022/01/03 04:59:39;;;;;;;30.67;5.80;;;;;;;;;;4970536;28;20039;-67
2022/01/03 05:02:05;;;;;;;27.73;4.93;;;10.70;99.90;;;;;;4971141;28;20380;-67
2022/01/03 05:04:30;;;;;;;30.63;6.27;;;10.40;99.90;;;;;;4970012;28;20449;-67
2022/01/03 05:06:56;;;;;;;29.30;6.33;;;10.60;99.90;;;;;;4970879;28;20134;-67
2022/01/03 05:09:22;;;;;;;25.60;4.37;;;;;;;;;;4970715;28;20078;-67
2022/01/03 05:11:48;;;;;;;33.97;5.73;;;10.50;99.90;;;;;;4969087;28;20064;-67
2022/01/03 05:14:14;;;;;;;23.43;4.17;;;;;;;;;;4971080;28;20034;-67
2022/01/03 05:16:39;;;;;;;29.93;5.23;;;10.70;99.90;;;;;;4970117;28;20417;-67
2022/01/03 05:19:05;;;;;;;28.37;5.17;;;10.70;99.90;;;;;;4970034;28;20062;-67
2022/01/03 05:21:30;;;;;;;21.87;5.17;;;10.50;99.90;;;;;;4970282;28;20027;-67
2022/01/03 05:23:56;;;;;;;23.20;4.10;;;10.80;99.90;;;;;;4970633;28;20031;-67
2022/01/03 05:26:21;;;;;;;23.93;4.97;;;10.60;99.90;;;;;;4971046;28;20026;-67
2022/01/03 05:28:47;;;;;;;23.23;4.80;;;10.50;99.90;;;;;;4969911;28;20384;-67
2022/01/03 05:31:13;;;;;;;17.87;4.23;;;10.50;99.90;;;;;;4970662;28;20054;-67
2022/01/03 05:33:39;;;;;;;28.53;6.07;;;10.60;99.90;;;;;;4969266;28;20027;-67
2022/01/03 05:36:06;;;;;;;23.10;4.63;;;10.60;99.90;;;;;;4970495;28;20476;-67
2022/01/03 05:38:31;;;;;;;25.80;5.30;;;10.60;99.90;;;;;;4969714;28;20038;-67
2022/01/03 05:40:57;;;;;;;22.63;4.97;;;;;;;;;;4970232;28;20035;-67
2022/01/03 05:43:23;;;;;;;24.83;6.57;;;10.50;99.90;;;;;;4968822;28;20022;-67
2022/01/03 05:45:48;;;;;;;24.57;5.63;;;10.60;99.90;;;;;;4969799;28;20049;-67
2022/01/03 05:48:14;;;;;;;22.23;4.90;;;10.60;99.90;;;;;;4969888;28;20026;-67
2022/01/03 05:50:40;;;;;;;19.93;4.63;;;;;;;;;;4969587;28;20072;-67
2022/01/03 05:53:05;;;;;;;29.50;5.33;;;10.90;99.90;;;;;;4969928;28;20418;-67
2022/01/03 05:55:31;;;;;;;23.47;4.87;;;10.60;99.90;;;;;;4969527;28;20546;-67
2022/01/03 05:57:56;;;;;;;27.07;3.80;;;10.70;99.90;;;;;;4969842;28;20106;-67
2022/01/03 06:00:24;;;;;;;27.57;6.77;;;10.60;99.90;;;;;;4970161;28;20069;-66
2022/01/03 06:02:55;;;;;;;26.83;4.47;;;10.90;99.90;;;;;;4968782;28;20027;-66
2022/01/03 06:05:38;;;;;;;25.00;4.57;;;10.50;99.90;;;;;;4970204;28;20480;-66
2022/01/03 06:08:05;;;;;;;25.58;5.60;;;10.60;99.90;;;;;;4969856;28;20046;-66
2022/01/03 06:10:30;;;;;;;24.33;6.17;;;10.40;99.90;;;;;;4969482;28;20145;-66
2022/01/03 06:12:56;;;;;;;30.67;5.30;;;;;;;;;;4969675;28;20480;-66
2022/01/03 06:15:24;;;;;;;33.37;4.83;;;10.40;99.90;;;;;;4969553;28;20031;-67
2022/01/03 06:17:50;;;;;;;33.10;5.77;;;10.70;99.90;;;;;;4968565;28;20019;-67
2022/01/03 06:20:17;;;;;;;28.57;5.50;;;10.60;99.90;;;;;;4969572;28;20039;-67
2022/01/03 06:22:42;;;;;;;29.77;4.27;;;10.70;99.90;;;;;;4968924;28;20049;-67
2022/01/03 06:25:10;;;;;;;21.30;4.70;;;10.50;99.90;;;;;;4969251;28;20023;-67
2022/01/03 06:27:36;;;;;;;28.30;5.30;;;10.50;99.90;;;;;;4968692;28;20066;-67
2022/01/03 06:30:06;;;;;;;23.13;4.77;;;10.40;99.90;;;;;;4968711;28;20169;-67
2022/01/03 06:32:32;;;;;;;22.00;4.60;;;;;;;;;;4968480;28;20041;-67
2022/01/03 06:34:58;;;;;;;28.10;5.13;;;10.60;99.90;;;;;;4969192;28;20027;-67
2022/01/03 06:37:23;;;;;;;18.60;5.17;;;10.70;99.90;;;;;;4969175;28;20503;-67
2022/01/03 06:39:49;;;;;;;22.10;4.37;;;10.20;99.90;;;;;;4968667;28;20038;-67
2022/01/03 06:42:15;;;;;;;20.93;5.00;;;;;;;;;;4969612;28;20109;-67
2022/01/03 06:44:43;;;;;;;23.23;4.50;;;10.60;99.90;;;;;;4968472;28;20027;-67
2022/01/03 06:47:09;;;;;;;18.17;4.10;;;10.70;99.90;;;;;;4968930;28;20360;-67
2022/01/03 06:49:35;;;;;;;23.60;5.00;;;;;;;;;;4968813;28;20038;-67
2022/01/03 06:52:00;;;;;;;24.43;4.73;;;10.60;99.90;;;;;;4969243;28;20031;-67
2022/01/03 06:54:26;;;;;;;26.33;5.00;;;10.70;99.90;;;;;;4968650;28;20038;-67
2022/01/03 06:56:51;;;;;;;17.50;4.17;;;10.50;99.90;;;;;;4968847;28;20023;-67
2022/01/03 06:59:17;;;;;;;18.93;4.03;;;10.20;99.90;;;;;;4969220;28;20050;-67
2022/01/03 07:01:43;;;;;;;20.10;4.10;;;;;;;;;;4968207;28;20031;-67
2022/01/03 07:04:09;;;;;;;28.37;6.20;;;10.60;99.90;;;;;;4969140;28;20356;-66
2022/01/03 07:06:36;;;;;;;24.57;4.73;;;;;;;;;;4968723;28;20043;-66
2022/01/03 07:09:05;;;;;;;22.30;5.50;;;;;;;;;;4968928;28;20023;-66
2022/01/03 07:11:30;;;;;;;30.73;4.77;;;10.70;99.90;;;;;;4968606;28;20060;-66
2022/01/03 07:18:55;;;;;;;20.63;3.67;;;10.60;99.90;;;;;;4983701;28;20035;-66
2022/01/03 07:19:26;;;;;;;21.15;3.72;;;;;;;;;;4968984;28;20434;-67
2022/01/03 07:21:52;;;;;;;24.43;4.63;;;10.60;99.90;;;;;;4968721;28;20027;-67
2022/01/03 07:24:18;;;;;;;24.13;4.70;;;10.90;99.90;;;;;;4969066;28;20033;-67
2022/01/03 07:26:43;;;;;;;18.60;4.53;;;10.60;99.90;;;;;;4968240;28;20035;-67
2022/01/03 07:29:09;;;;;;;25.27;4.57;;;10.60;99.90;;;;;;4968513;28;20423;-67
2022/01/03 07:31:35;;;;;;;19.40;3.63;;;;;;;;;;4967299;28;20046;-67
2022/01/03 07:34:00;;;;;;;19.13;4.10;;;10.60;99.90;;;;;;4968884;28;20027;-67
2022/01/03 07:36:27;;;;;;;18.97;3.50;;;10.60;99.90;;;;;;4968765;28;20027;-67
2022/01/03 07:38:53;;;;;;;18.90;5.70;;;10.50;99.90;;;;;;4968031;28;20101;-67
2022/01/03 07:41:19;;;;;;;27.43;4.50;;;10.70;99.90;;;;;;4969813;28;20035;-67
2022/01/03 07:43:45;;;;;;;22.50;4.20;;;10.50;99.90;;;;;;4971626;28;20038;-67
2022/01/03 07:46:11;;;;;;;19.83;4.40;;;10.60;99.90;;;;;;4972672;28;20066;-67
2022/01/03 07:48:37;;;;;;;34.13;5.40;;;10.60;99.90;;;;;;4971856;28;20062;-67
2022/01/03 07:51:02;;;;;;;25.13;4.93;;;10.90;99.90;;;;;;4972385;28;20110;-67
2022/01/03 07:53:29;;;;;;;17.70;4.10;;;10.70;99.90;;;;;;4971719;28;20464;-67
2022/01/03 07:55:56;;;;;;;18.47;4.77;;;;;;;;;;4972202;28;20031;-67
2022/01/03 07:58:22;;;;;;;26.23;5.10;;;;;;;;;;4972098;28;20443;-67
2022/01/03 08:00:48;;;;;;;20.70;4.43;;;10.40;99.90;;;;;;4971639;28;20185;-68
2022/01/03 08:03:13;;;;;;;24.30;4.33;;;10.60;99.90;;;;;;4972526;28;20113;-67
2022/01/03 08:05:39;;;;;;;20.43;4.37;;;10.70;99.90;;;;;;4971348;28;20078;-67
2022/01/03 08:08:09;;;;;;;19.77;3.90;;;10.70;99.90;;;;;;4971785;28;20130;-67
2022/01/03 08:10:39;;;;;;;20.20;3.50;;;10.50;99.90;;;;;;4971700;28;20130;-67
2022/01/03 08:13:05;;;;;;;21.03;4.17;;;10.60;99.90;;;;;;4971552;28;20027;-69
2022/01/03 08:15:30;;;;;;;21.43;3.97;;;10.50;99.90;;;;;;4971591;28;20027;-67
2022/01/03 08:17:56;;;;;;;23.90;4.37;;;10.50;99.90;;;;;;4971636;28;20108;-67
2022/01/03 08:20:22;;;;;;;20.33;4.17;;;10.50;99.90;;;;;;4971705;28;20110;-67
2022/01/03 08:22:47;;;;;;;19.97;3.93;;;10.90;99.90;;;;;;4970506;28;20490;-67
2022/01/03 08:25:13;;;;;;;12.33;3.73;;;10.50;99.90;;;;;;4971425;28;20038;-67
2022/01/03 08:27:39;;;;;;;13.93;3.77;;;;;;;;;;4970755;28;20337;-67
2022/01/03 08:30:05;;;;;;;21.63;4.10;;;10.80;99.90;;;;;;4971553;28;20059;-67
2022/01/03 08:32:31;;;;;;;19.40;3.90;;;10.70;99.90;;;;;;4969837;28;20027;-70
2022/01/03 08:34:56;;;;;;;25.40;5.13;;;10.60;99.90;;;;;;4971281;28;20026;-70
2022/01/03 08:37:22;;;;;;;23.67;4.27;;;;;;;;;;4971322;28;20019;-70
2022/01/03 08:39:48;;;;;;;18.93;4.27;;;10.70;99.90;;;;;;4970925;28;20321;-71
2022/01/03 08:42:13;;;;;;;22.13;5.23;;;10.80;99.90;;;;;;4970827;28;20110;-71
2022/01/03 08:44:39;;;;;;;22.47;3.73;;;10.70;99.90;;;;;;4969115;28;20023;-72
2022/01/03 08:47:05;;;;;;;17.87;3.93;;;10.80;99.90;;;;;;4970255;28;20042;-71
2022/01/03 08:49:31;;;;;;;19.63;3.73;;;;;;;;;;4968335;28;20022;-69
2022/01/03 08:51:57;;;;;;;13.53;3.50;;;10.80;99.90;;;;;;4969169;28;20062;-69
2022/01/03 08:54:23;;;;;;;14.43;3.83;;;;;;;;;;4968374;28;20050;-70
2022/01/03 08:56:49;;;;;;;20.00;3.67;;;10.80;99.90;;;;;;4968051;28;20022;-69
2022/01/03 08:59:15;;;;;;;17.30;4.13;;;;;;;;;;4969744;28;20642;-68
2022/01/03 09:01:40;;;;;;;13.83;4.30;;;10.90;99.90;;;;;;4967356;28;20031;-69
2022/01/03 09:04:06;;;;;;;22.17;5.10;;;;;;;;;;4969570;28;20038;-69
2022/01/03 09:06:35;;;;;;;20.00;4.43;;;;;;;;;;4967760;28;20054;-69
2022/01/03 09:09:01;;;;;;;19.73;5.10;;;11.00;99.90;;;;;;4969195;28;20491;-69
2022/01/03 09:11:27;;;;;;;18.97;4.07;;;10.70;99.90;;;;;;4969317;28;20038;-69
2022/01/03 09:13:52;;;;;;;18.53;4.27;;;11.00;99.90;;;;;;4968836;28;20022;-70
2022/01/03 09:16:18;;;;;;;26.03;4.90;;;10.80;99.90;;;;;;4969295;28;20464;-70
2022/01/03 09:18:43;;;;;;;14.50;3.57;;;;;;;;;;4968599;28;20098;-70
2022/01/03 09:21:10;;;;;;;19.13;3.97;;;10.90;99.90;;;;;;4969013;28;20041;-68
2022/01/03 09:23:40;;;;;;;19.50;4.97;;;10.90;99.90;;;;;;4968246;28;20018;-68
2022/01/03 09:28:53;;;;;;;14.67;3.40;;;10.90;99.90;;;;;;4969059;28;20081;-69
2022/01/03 09:31:29;;;;;;;20.27;4.40;;;10.90;99.90;;;;;;4968740;28;20082;-69
2022/01/03 09:33:58;;;;;;;22.60;5.03;;;10.90;99.90;;;;;;4968486;28;20089;-69
2022/01/03 09:36:25;;;;;;;17.90;4.77;;;10.90;99.90;;;;;;4967219;28;20176;-69
2022/01/03 09:38:51;;;;;;;22.55;4.95;;;10.90;99.90;;;;;;4968302;28;20019;-68
2022/01/03 09:41:23;;;;;;;23.40;4.20;;;10.90;99.90;;;;;;4969523;28;20030;-69
2022/01/03 09:44:08;;;;;;;23.67;3.63;;;10.90;99.90;;;;;;4967534;28;20027;-69
2022/01/03 09:46:36;;;;;;;20.87;4.10;;;10.90;99.90;;;;;;4969135;28;20030;-69
2022/01/03 09:49:05;;;;;;;21.17;4.60;;;10.90;99.90;;;;;;4969866;28;20468;-68
2022/01/03 09:51:32;;;;;;;23.30;6.20;;;10.80;99.90;;;;;;4969953;28;20031;-70
2022/01/03 09:54:02;;;;;;;20.00;4.60;;;10.70;99.90;;;;;;4969281;28;20027;-70
2022/01/03 09:56:30;;;;;;;24.27;4.93;;;10.60;99.90;;;;;;4970090;28;20026;-70
2022/01/03 09:58:57;;;;;;;18.43;3.63;;;11.00;99.90;;;;;;4969719;28;20034;-70
2022/01/03 10:01:24;;;;;;;23.23;4.25;;;10.60;99.90;;;;;;4970194;28;20099;-70
2022/01/03 10:03:50;;;;;;;15.03;3.77;;;;;;;;;;4969415;28;20069;-69
2022/01/03 10:06:17;;;;;;;23.17;5.17;;;10.70;99.90;;;;;;4969223;28;20041;-69
2022/01/03 10:08:44;;;;;;;16.57;4.13;;;10.70;99.90;;;;;;4968948;28;20118;-69
2022/01/03 10:11:09;;;;;;;14.30;3.37;;;10.60;99.90;;;;;;4969473;28;20449;-70
2022/01/03 10:13:35;;;;;;;25.17;4.90;;;10.80;99.90;;;;;;4969268;28;20027;-69
2022/01/03 10:16:00;;;;;;;21.73;5.60;;;10.70;99.90;;;;;;4969278;28;20439;-70
2022/01/03 10:18:26;;;;;;;16.03;3.93;;;10.60;99.90;;;;;;4968195;28;20029;-69
2022/01/03 10:20:54;;;;;;;19.90;4.57;;;10.70;99.90;;;;;;4968110;28;20039;-69
2022/01/03 10:23:19;;;;;;;20.50;4.73;;;10.70;99.90;;;;;;4968082;28;20690;-71
2022/01/03 10:25:50;;;;;;;25.93;4.57;;;10.70;99.90;;;;;;4968913;28;20023;-69
2022/01/03 10:28:28;;;;;;;21.07;4.60;;;10.90;99.90;;;;;;4969438;28;20030;-69
2022/01/03 10:30:53;;;;;;;25.07;5.30;;;10.70;99.90;;;;;;4951146;28;20204;-69
2022/01/03 10:33:21;;;;;;;15.17;3.87;;;11.00;99.90;;;;;;4955080;28;20526;-69
2022/01/03 10:35:49;;;;;;;28.83;4.63;;;10.60;99.90;;;;;;4968169;28;20027;-69
2022/01/03 10:38:33;;;;;;;23.07;4.57;;;10.60;99.90;;;;;;4969050;28;20037;-70
2022/01/03 10:41:27;;;;;;;26.17;5.45;;;10.80;99.90;;;;;;4969077;28;20436;-70
2022/01/03 10:43:56;;;;;;;22.40;5.13;;;10.90;99.90;;;;;;4960898;28;20519;-69
2022/01/03 10:46:27;;;;;;;23.70;5.20;;;10.90;99.90;;;;;;4968032;28;20484;-70
2022/01/03 10:48:57;;;;;;;25.83;4.90;;;10.90;99.90;;;;;;4967490;28;20337;-70
2022/01/03 10:51:26;;;;;;;21.57;4.13;;;11.10;99.90;;;;;;4968055;28;20039;-70
2022/01/03 10:53:54;;;;;;;29.57;5.70;;;11.10;99.90;;;;;;4982785;28;20116;-70
2022/01/03 10:56:28;;;;;;;21.67;3.93;;;11.00;99.90;;;;;;4969421;28;20152;-70
2022/01/03 10:58:58;;;;;;;21.80;4.90;;;11.20;99.90;;;;;;4968319;28;20081;-70
2022/01/03 11:01:29;;;;;;;24.63;4.37;;;11.00;99.90;;;;;;4968933;28;20034;-70
2022/01/03 11:03:59;;;;;;;21.10;4.50;;;10.90;99.90;;;;;;4968506;28;20118;-68
2022/01/03 11:11:42;;;;;;;19.42;5.28;;;11.00;99.90;;;;;;4968587;28;20105;-71
2022/01/03 11:14:10;;;;;;;25.63;4.50;;;11.20;99.90;;;;;;4968682;28;20022;-70
2022/01/03 11:16:42;;;;;;;20.43;4.80;;;11.30;99.90;;;;;;4968414;28;20145;-70
2022/01/03 11:19:08;;;;;;;15.82;4.22;;;11.20;99.90;;;;;;4972452;28;20049;-70
2022/01/03 11:21:37;;;;;;;20.05;4.38;;;;;;;;;;4971802;28;20035;-70
2022/01/03 11:24:11;;;;;;;15.68;4.78;;;11.30;99.90;;;;;;4972123;28;20035;-70
2022/01/03 11:26:41;;;;;;;21.02;5.85;;;11.50;99.90;;;;;;4970884;28;20026;-70
2022/01/03 11:29:07;;;;;;;17.48;3.15;;;;;;;;;;4972309;28;20428;-70
2022/01/03 11:31:33;;;;;;;22.38;4.80;;;;;;;;;;4972465;28;20165;-70
2022/01/03 11:34:00;;;;;;;18.25;4.63;;;11.80;99.90;;;;;;4971857;28;20088;-70
2022/01/03 11:36:26;;;;;;;18.97;4.50;;;11.80;99.90;;;;;;4970540;28;20425;-70
2022/01/03 11:38:56;;;;;;;18.45;4.78;;;11.70;99.90;;;;;;4971980;28;20030;-70
2022/01/03 11:41:22;;;;;;;24.13;4.75;;;11.90;99.90;;;;;;4972580;28;20026;-70
2022/01/03 11:43:49;;;;;;;17.05;5.20;;;12.00;99.90;;;;;;4972336;28;20031;-70
2022/01/03 11:46:15;;;;;;;16.75;4.45;;;;;;;;;;4971632;28;20023;-70
2022/01/03 11:48:40;;;;;;;20.70;4.93;;;11.80;99.90;;;;;;4952370;28;20031;-70
2022/01/03 11:51:11;;;;;;;17.20;3.53;;;11.80;99.90;;;;;;4971098;28;20027;-70
2022/01/03 11:53:45;;;;;;;19.95;4.55;;;11.80;99.90;;;;;;4971465;28;20089;-70
2022/01/03 11:56:21;;;;;;;19.15;4.28;;;11.60;99.90;;;;;;4970617;28;20471;-70
2022/01/03 12:04:29;;;;;;;22.33;3.67;;;11.50;99.90;;;;;;4971103;28;20092;-70
2022/01/03 12:07:12;;;;;;;20.65;4.03;;;11.40;99.90;;;;;;4970960;28;20161;-70
2022/01/03 12:09:50;;;;;;;14.50;3.95;;;11.40;99.90;;;;;;4970368;28;20023;-71
2022/01/03 12:12:35;;;;;;;22.00;4.80;;;11.60;99.90;;;;;;4971544;28;20118;-70
2022/01/03 12:15:03;;;;;;;21.58;3.58;;;11.60;99.90;;;;;;4986286;28;20433;-70
2022/01/03 12:18:01;;;;;;;20.45;4.75;;;11.60;99.90;;;;;;4971771;28;20049;-70
2022/01/03 12:20:45;;;;;;;18.27;4.83;;;11.80;99.90;;;;;;4958013;28;20472;-70
2022/01/03 12:23:34;;;;;;;29.95;4.70;;;11.50;99.90;;;;;;4971630;28;20086;-70
2022/01/03 12:26:07;;;;;;;14.30;3.60;;;11.30;99.90;;;;;;4959905;28;20037;-69
2022/01/03 12:29:06;;;;;;;13.90;3.72;;;11.20;99.90;;;;;;4970475;28;20030;-69
2022/01/03 12:32:06;;;;;;;19.40;4.03;;;11.30;99.90;;;;;;4959466;28;20046;-69
2022/01/03 12:34:32;;;;;;;16.50;3.95;;;11.20;99.90;;;;;;4970278;28;20027;-70
2022/01/03 12:37:18;;;;;;;15.50;3.08;;;11.10;99.90;;;;;;4970316;28;20121;-70
2022/01/03 12:40:02;;;;;;;17.10;5.63;;;11.20;99.90;;;;;;4969254;28;20032;-70
2022/01/03 12:42:48;;;;;;;17.90;4.20;;;11.30;99.90;;;;;;4969951;28;20041;-70
2022/01/03 12:45:14;;;;;;;13.20;3.67;;;;;;;;;;4970743;28;20511;-70
2022/01/03 12:47:41;;;;;;;22.05;4.80;;;11.40;99.90;;;;;;4970233;28;20019;-70
2022/01/03 12:50:29;;;;;;;18.75;3.85;;;11.30;99.90;;;;;;4969117;28;20113;-69
2022/01/03 12:53:00;;;;;;;31.17;4.70;;;11.30;99.90;;;;;;4967638;28;20098;-70
2022/01/03 12:55:38;;;;;;;19.40;5.07;;;11.40;99.90;;;;;;4970334;28;20018;-69
2022/01/03 12:58:23;;;;;;;16.70;3.70;;;11.30;99.90;;;;;;4968631;28;20033;-70
2022/01/03 13:01:13;;;;;;;12.75;3.40;;;11.40;99.90;;;;;;4970377;28;20042;-70
2022/01/03 13:03:39;;;;;;;11.03;2.80;;;11.30;99.90;;;;;;4967563;28;20453;-70
2022/01/03 13:06:25;;;;;;;10.43;3.07;;;11.70;99.90;;;;;;4970190;28;20041;-70
2022/01/03 13:08:54;;;;;;;16.90;3.20;;;11.30;99.90;;;;;;4970014;28;20116;-70
2022/01/03 13:11:24;;;;;;;19.33;3.53;;;11.30;99.90;;;;;;4970189;28;20019;-70
2022/01/03 13:13:52;;;;;;;11.23;2.47;;;11.10;99.90;;;;;;4970240;28;20039;-70
2022/01/03 13:16:18;;;;;;;12.88;2.72;;;11.20;99.90;;;;;;4970040;28;20076;-69
2022/01/03 13:18:50;;;;;;;8.90;2.45;;;11.10;99.90;;;;;;4969624;28;20023;-72
2022/01/03 13:21:18;;;;;;;14.63;3.43;;;11.10;99.90;;;;;;4970537;28;20469;-70
2022/01/03 13:23:59;;;;;;;13.27;4.63;;;11.10;99.90;;;;;;4970481;28;20043;-69